KCVW

National Data Buoy Center

Cameron, Louisiana, USA
METAR KCVW 260400Z AUTO 18007KT 10SM SCT022 SCT027 SCT033 27/23 A2991 RMK A01
Observed Flight Rules
May-26 @ 04:00 UTC (20 minutes ago) Visual Flight Rules
Wind Visibility Clouds
180° at 7 knots 10 miles
  • Scattered at 2,200' AGL
  • Scattered at 2,700' AGL
  • Scattered at 3,300' AGL
Temperatures Readings
Current 27°C / 81°F
Dewpoint 23°C / 73°F
Humidity 79%
Altimeter 29.91" Hg
Pressure 1013 hPa
Elevation 1
METAR KCVW 260400Z AUTO 18007KT 10SM SCT022 SCT027 SCT033 27/23 A2991 RMK A01
Observed Flight Rules
May-26 @ 04:00 UTC
(20 minutes ago)
VFR
Wind Visibility
180° at 7 knots 10 miles
Clouds
  • Scattered at 2,200' AGL
  • Scattered at 2,700' AGL
  • Scattered at 3,300' AGL
Temperature Dewpoint
27°C / 81°F 23°C / 73°F
Humidity Altimeter Pressure
79% 29.91" Hg 1013 hPa